sensor_id;sensor_type;location;lat;lon;timestamp;temperature;humidity
67165;SHT31;54093;50.014;19.984;2022-08-01T00:08:45;16.18;91.79
67165;SHT31;54093;50.014;19.984;2022-08-01T00:18:06;16.14;91.74
67165;SHT31;54093;50.014;19.984;2022-08-01T00:27:27;16.11;91.82
67165;SHT31;54093;50.014;19.984;2022-08-01T00:36:48;16.10;91.57
67165;SHT31;54093;50.014;19.984;2022-08-01T00:46:08;16.11;91.49
67165;SHT31;54093;50.014;19.984;2022-08-01T00:55:31;16.07;91.51
67165;SHT31;54093;50.014;19.984;2022-08-01T01:04:51;16.01;91.33
67165;SHT31;54093;50.014;19.984;2022-08-01T01:14:20;15.97;91.28
67165;SHT31;54093;50.014;19.984;2022-08-01T01:33:19;16.03;91.15
67165;SHT31;54093;50.014;19.984;2022-08-01T01:42:42;15.97;91.17
67165;SHT31;54093;50.014;19.984;2022-08-01T01:52:04;15.97;91.46
67165;SHT31;54093;50.014;19.984;2022-08-01T02:01:27;15.93;91.60
67165;SHT31;54093;50.014;19.984;2022-08-01T02:10:50;15.91;91.39
67165;SHT31;54093;50.014;19.984;2022-08-01T02:20:30;15.86;91.32
67165;SHT31;54093;50.014;19.984;2022-08-01T02:29:58;15.82;91.30
67165;SHT31;54093;50.014;19.984;2022-08-01T02:39:21;15.70;91.16
67165;SHT31;54093;50.014;19.984;2022-08-01T02:48:43;15.66;90.81
67165;SHT31;54093;50.014;19.984;2022-08-01T02:58:06;15.59;90.83
67165;SHT31;54093;50.014;19.984;2022-08-01T03:07:28;15.55;90.78
67165;SHT31;54093;50.014;19.984;2022-08-01T03:16:51;15.56;90.15
67165;SHT31;54093;50.014;19.984;2022-08-01T03:26:13;15.52;90.09
67165;SHT31;54093;50.014;19.984;2022-08-01T03:35:37;15.46;89.81
67165;SHT31;54093;50.014;19.984;2022-08-01T03:45:11;15.48;89.97
67165;SHT31;54093;50.014;19.984;2022-08-01T03:54:40;15.29;90.40
67165;SHT31;54093;50.014;19.984;2022-08-01T04:04:01;15.17;91.28
67165;SHT31;54093;50.014;19.984;2022-08-01T04:13:22;15.12;91.78
67165;SHT31;54093;50.014;19.984;2022-08-01T04:22:43;15.15;92.38
67165;SHT31;54093;50.014;19.984;2022-08-01T04:32:06;15.25;92.36
67165;SHT31;54093;50.014;19.984;2022-08-01T04:41:29;15.40;92.09
67165;SHT31;54093;50.014;19.984;2022-08-01T04:50:50;15.50;91.51
67165;SHT31;54093;50.014;19.984;2022-08-01T05:00:11;15.52;91.18
67165;SHT31;54093;50.014;19.984;2022-08-01T05:09:33;15.63;91.05
67165;SHT31;54093;50.014;19.984;2022-08-01T05:18:54;15.69;90.36
67165;SHT31;54093;50.014;19.984;2022-08-01T05:28:15;15.69;90.26
67165;SHT31;54093;50.014;19.984;2022-08-01T05:37:36;15.73;90.14
67165;SHT31;54093;50.014;19.984;2022-08-01T05:46:56;15.87;89.64
67165;SHT31;54093;50.014;19.984;2022-08-01T05:56:17;16.17;91.09
67165;SHT31;54093;50.014;19.984;2022-08-01T06:05:38;16.32;88.48
67165;SHT31;54093;50.014;19.984;2022-08-01T06:14:59;16.68;90.01
67165;SHT31;54093;50.014;19.984;2022-08-01T06:24:20;17.24;88.34
67165;SHT31;54093;50.014;19.984;2022-08-01T06:33:43;17.44;88.09
67165;SHT31;54093;50.014;19.984;2022-08-01T06:43:04;17.69;84.59
67165;SHT31;54093;50.014;19.984;2022-08-01T06:52:25;18.60;82.28
67165;SHT31;54093;50.014;19.984;2022-08-01T07:01:45;18.71;81.79
67165;SHT31;54093;50.014;19.984;2022-08-01T07:11:06;19.26;81.64
67165;SHT31;54093;50.014;19.984;2022-08-01T07:20:27;19.91;81.23
67165;SHT31;54093;50.014;19.984;2022-08-01T07:29:48;20.21;79.22
67165;SHT31;54093;50.014;19.984;2022-08-01T07:39:08;20.77;74.55
67165;SHT31;54093;50.014;19.984;2022-08-01T07:48:29;21.24;74.49
67165;SHT31;54093;50.014;19.984;2022-08-01T07:57:50;21.45;73.08
67165;SHT31;54093;50.014;19.984;2022-08-01T08:07:11;22.65;71.97
67165;SHT31;54093;50.014;19.984;2022-08-01T08:16:31;23.12;68.06
67165;SHT31;54093;50.014;19.984;2022-08-01T08:25:52;23.47;63.06
67165;SHT31;54093;50.014;19.984;2022-08-01T08:35:13;23.30;65.88
67165;SHT31;54093;50.014;19.984;2022-08-01T08:44:34;23.96;60.49
67165;SHT31;54093;50.014;19.984;2022-08-01T08:53:55;24.91;58.81
67165;SHT31;54093;50.014;19.984;2022-08-01T09:03:16;25.94;53.09
67165;SHT31;54093;50.014;19.984;2022-08-01T09:12:37;24.86;51.07
67165;SHT31;54093;50.014;19.984;2022-08-01T09:21:59;24.51;55.16
67165;SHT31;54093;50.014;19.984;2022-08-01T09:31:20;25.72;46.23
67165;SHT31;54093;50.014;19.984;2022-08-01T09:50:07;25.85;49.24
67165;SHT31;54093;50.014;19.984;2022-08-01T09:59:35;26.41;49.07
67165;SHT31;54093;50.014;19.984;2022-08-01T10:08:58;26.85;48.23
67165;SHT31;54093;50.014;19.984;2022-08-01T10:18:18;27.10;49.41
67165;SHT31;54093;50.014;19.984;2022-08-01T10:27:42;27.80;45.55
67165;SHT31;54093;50.014;19.984;2022-08-01T10:37:06;27.70;47.10
67165;SHT31;54093;50.014;19.984;2022-08-01T10:46:29;27.15;44.88
67165;SHT31;54093;50.014;19.984;2022-08-01T11:05:20;26.75;45.18
67165;SHT31;54093;50.014;19.984;2022-08-01T11:34:06;26.74;45.39
67165;SHT31;54093;50.014;19.984;2022-08-01T11:43:27;26.34;44.99
67165;SHT31;54093;50.014;19.984;2022-08-01T11:52:57;26.41;47.02
67165;SHT31;54093;50.014;19.984;2022-08-01T12:02:26;26.36;49.24
67165;SHT31;54093;50.014;19.984;2022-08-01T12:11:47;26.10;50.29
67165;SHT31;54093;50.014;19.984;2022-08-01T12:21:08;25.81;51.92
67165;SHT31;54093;50.014;19.984;2022-08-01T12:30:30;25.59;51.41
67165;SHT31;54093;50.014;19.984;2022-08-01T12:39:51;25.28;49.48
67165;SHT31;54093;50.014;19.984;2022-08-01T12:49:12;25.68;50.16
67165;SHT31;54093;50.014;19.984;2022-08-01T12:58:33;25.94;49.84
67165;SHT31;54093;50.014;19.984;2022-08-01T13:07:54;25.66;50.05
67165;SHT31;54093;50.014;19.984;2022-08-01T13:17:30;25.41;50.92
67165;SHT31;54093;50.014;19.984;2022-08-01T13:26:54;25.23;51.80
67165;SHT31;54093;50.014;19.984;2022-08-01T13:36:16;24.83;45.10
67165;SHT31;54093;50.014;19.984;2022-08-01T13:45:37;24.80;48.73
67165;SHT31;54093;50.014;19.984;2022-08-01T13:54:59;24.79;48.64
67165;SHT31;54093;50.014;19.984;2022-08-01T14:04:20;24.79;49.12
67165;SHT31;54093;50.014;19.984;2022-08-01T14:13:41;24.91;50.06
67165;SHT31;54093;50.014;19.984;2022-08-01T14:23:02;25.06;52.36
67165;SHT31;54093;50.014;19.984;2022-08-01T14:32:23;25.11;52.03
67165;SHT31;54093;50.014;19.984;2022-08-01T14:41:43;25.31;53.17
67165;SHT31;54093;50.014;19.984;2022-08-01T14:51:04;25.54;51.02
67165;SHT31;54093;50.014;19.984;2022-08-01T15:00:27;25.89;50.19
67165;SHT31;54093;50.014;19.984;2022-08-01T15:09:48;25.97;52.27
67165;SHT31;54093;50.014;19.984;2022-08-01T15:19:09;25.73;51.54
67165;SHT31;54093;50.014;19.984;2022-08-01T15:28:29;25.39;52.68
67165;SHT31;54093;50.014;19.984;2022-08-01T15:37:50;25.28;54.30
67165;SHT31;54093;50.014;19.984;2022-08-01T15:47:11;25.24;53.97
67165;SHT31;54093;50.014;19.984;2022-08-01T15:56:32;25.15;54.98
67165;SHT31;54093;50.014;19.984;2022-08-01T16:05:53;25.06;55.16
67165;SHT31;54093;50.014;19.984;2022-08-01T16:15:14;24.90;54.46
67165;SHT31;54093;50.014;19.984;2022-08-01T16:24:34;24.77;56.12
67165;SHT31;54093;50.014;19.984;2022-08-01T16:33:55;24.65;56.15
67165;SHT31;54093;50.014;19.984;2022-08-01T16:43:17;24.53;57.04
67165;SHT31;54093;50.014;19.984;2022-08-01T16:52:38;24.35;58.48
67165;SHT31;54093;50.014;19.984;2022-08-01T17:01:59;24.24;58.73
67165;SHT31;54093;50.014;19.984;2022-08-01T17:11:20;24.09;59.26
67165;SHT31;54093;50.014;19.984;2022-08-01T17:20:41;23.87;61.68
67165;SHT31;54093;50.014;19.984;2022-08-01T17:30:04;23.45;63.57
67165;SHT31;54093;50.014;19.984;2022-08-01T17:39:25;23.12;64.80
67165;SHT31;54093;50.014;19.984;2022-08-01T17:48:46;22.91;65.87
67165;SHT31;54093;50.014;19.984;2022-08-01T17:58:08;22.68;67.78
67165;SHT31;54093;50.014;19.984;2022-08-01T18:07:29;22.47;68.89
67165;SHT31;54093;50.014;19.984;2022-08-01T18:16:50;22.50;70.14
67165;SHT31;54093;50.014;19.984;2022-08-01T18:26:11;22.43;71.15
67165;SHT31;54093;50.014;19.984;2022-08-01T18:35:32;22.32;71.90
67165;SHT31;54093;50.014;19.984;2022-08-01T18:44:53;22.23;72.93
67165;SHT31;54093;50.014;19.984;2022-08-01T18:54:15;22.05;73.12
67165;SHT31;54093;50.014;19.984;2022-08-01T19:03:36;21.95;74.53
67165;SHT31;54093;50.014;19.984;2022-08-01T19:12:57;21.82;75.65
67165;SHT31;54093;50.014;19.984;2022-08-01T19:22:17;21.75;75.51
67165;SHT31;54093;50.014;19.984;2022-08-01T19:31:39;21.75;76.45
67165;SHT31;54093;50.014;19.984;2022-08-01T19:41:00;21.66;76.29
67165;SHT31;54093;50.014;19.984;2022-08-01T19:50:26;21.44;76.90
67165;SHT31;54093;50.014;19.984;2022-08-01T19:59:47;21.41;76.54
67165;SHT31;54093;50.014;19.984;2022-08-01T20:09:11;21.35;76.73
67165;SHT31;54093;50.014;19.984;2022-08-01T20:18:33;21.31;76.12
67165;SHT31;54093;50.014;19.984;2022-08-01T20:27:55;21.24;76.33
67165;SHT31;54093;50.014;19.984;2022-08-01T20:37:16;21.17;76.12
67165;SHT31;54093;50.014;19.984;2022-08-01T20:46:39;21.12;76.11
67165;SHT31;54093;50.014;19.984;2022-08-01T20:56:09;21.03;76.48
67165;SHT31;54093;50.014;19.984;2022-08-01T21:05:31;20.94;76.58
67165;SHT31;54093;50.014;19.984;2022-08-01T21:14:57;20.84;77.00
67165;SHT31;54093;50.014;19.984;2022-08-01T21:24:22;20.80;77.18
67165;SHT31;54093;50.014;19.984;2022-08-01T21:33:47;20.79;77.25
67165;SHT31;54093;50.014;19.984;2022-08-01T21:43:08;20.73;77.37
67165;SHT31;54093;50.014;19.984;2022-08-01T21:52:41;20.60;77.76
67165;SHT31;54093;50.014;19.984;2022-08-01T22:02:11;20.51;77.87
67165;SHT31;54093;50.014;19.984;2022-08-01T22:11:36;20.41;77.75
67165;SHT31;54093;50.014;19.984;2022-08-01T22:21:00;20.28;77.96
67165;SHT31;54093;50.014;19.984;2022-08-01T22:30:21;20.28;77.94
67165;SHT31;54093;50.014;19.984;2022-08-01T22:39:42;20.17;78.37
67165;SHT31;54093;50.014;19.984;2022-08-01T22:49:15;20.01;79.09
67165;SHT31;54093;50.014;19.984;2022-08-01T22:58:42;19.91;79.48
67165;SHT31;54093;50.014;19.984;2022-08-01T23:08:03;19.85;79.72
67165;SHT31;54093;50.014;19.984;2022-08-01T23:17:25;19.80;79.92
67165;SHT31;54093;50.014;19.984;2022-08-01T23:26:48;19.71;80.32
67165;SHT31;54093;50.014;19.984;2022-08-01T23:36:09;19.57;80.81
67165;SHT31;54093;50.014;19.984;2022-08-01T23:45:31;19.46;81.52
67165;SHT31;54093;50.014;19.984;2022-08-01T23:54:52;19.36;82.09
